createdAt,value
2022-08-30T00:04:08.961Z,16.9
2022-08-30T00:24:09.650Z,16.5
2022-08-30T00:34:09.907Z,16.4
2022-08-30T00:44:10.814Z,16.2
2022-08-30T00:54:11.520Z,16.1
2022-08-30T01:04:12.332Z,15.9
2022-08-30T01:14:12.484Z,15.8
2022-08-30T01:24:12.661Z,15.7
2022-08-30T02:04:14.141Z,15.5
2022-08-30T02:24:15.249Z,15.4
2022-08-30T02:34:16.024Z,15.4
2022-08-30T02:44:16.101Z,15.3
2022-08-30T02:54:16.271Z,15.2
2022-08-30T03:14:16.842Z,15
2022-08-30T03:24:17.785Z,14.9
2022-08-30T03:34:18.417Z,14.8
2022-08-30T03:44:19.137Z,14.7
2022-08-30T03:54:19.298Z,14.6
2022-08-30T04:04:21.176Z,14.5
2022-08-30T04:14:21.038Z,14.5
2022-08-30T04:24:21.163Z,14.5
2022-08-30T04:34:21.408Z,14.4
2022-08-30T04:44:21.866Z,14.4
2022-08-30T04:54:22.160Z,14.4
2022-08-30T05:14:23.107Z,14.4
2022-08-30T05:24:24.001Z,14.5
2022-08-30T06:04:26.553Z,15.1
2022-08-30T06:14:27.230Z,15.3
2022-08-30T06:14:49.138Z,15.3
2022-08-30T06:24:53.986Z,15.5
2022-08-30T06:34:34.673Z,15.8
2022-08-30T07:14:37.976Z,17
2022-08-30T07:34:38.122Z,17.6
2022-08-30T09:10:40.767Z,20.4
2022-08-30T09:19:50.072Z,20.8
2022-08-30T09:49:54.069Z,21.3
2022-08-30T09:59:54.000Z,21.5
2022-08-30T10:09:54.307Z,21.9
2022-08-30T10:19:55.037Z,22.2
2022-08-30T10:29:56.022Z,22.4
2022-08-30T10:39:57.021Z,22.6
2022-08-30T10:49:57.988Z,22.9
2022-08-30T10:59:58.312Z,23.5
2022-08-30T11:09:58.948Z,23.8
2022-08-30T11:19:59.746Z,23.8
2022-08-30T11:30:00.849Z,23.9
2022-08-30T11:40:01.902Z,24
2022-08-30T11:50:02.427Z,24.5
2022-08-30T12:00:02.938Z,24.5
2022-08-30T12:10:03.351Z,24.3
2022-08-30T12:20:03.682Z,24
2022-08-30T12:30:04.824Z,24.3
2022-08-30T12:40:05.022Z,24.4
2022-08-30T12:50:05.243Z,24.5
2022-08-30T13:00:05.745Z,24.8
2022-08-30T13:10:06.015Z,24.9
2022-08-30T13:20:06.925Z,24.7
2022-08-30T13:30:07.926Z,25
2022-08-30T13:40:08.171Z,25.2
2022-08-30T13:50:09.010Z,25.3
2022-08-30T14:00:09.126Z,24.7
2022-08-30T14:20:13.852Z,24.6
2022-08-30T14:30:11.349Z,24.8
2022-08-30T14:40:11.943Z,24.5
2022-08-30T14:50:11.946Z,24.4
2022-08-30T15:00:12.783Z,24.4
2022-08-30T15:10:13.123Z,24.4
2022-08-30T15:40:14.649Z,24.1
2022-08-30T15:50:15.272Z,24.2
2022-08-30T16:00:15.886Z,24.2
2022-08-30T16:20:16.350Z,24.2
2022-08-30T16:30:16.934Z,23.9
2022-08-30T16:40:17.809Z,23.8
2022-08-30T16:50:17.978Z,23.5
2022-08-30T17:00:18.439Z,23.5
2022-08-30T17:10:22.916Z,23.4
2022-08-30T17:20:19.084Z,23.1
2022-08-30T17:30:19.699Z,22.9
2022-08-30T17:50:20.244Z,22.6
2022-08-30T18:10:26.713Z,22.2
2022-08-30T18:20:22.363Z,22
2022-08-30T18:30:23.300Z,21.8
2022-08-30T18:40:23.493Z,21.6
2022-08-30T18:50:24.335Z,21.4
2022-08-30T19:00:25.190Z,21.3
2022-08-30T19:10:25.433Z,21.1
2022-08-30T19:20:26.334Z,20.9
2022-08-30T19:30:29.724Z,20.8
2022-08-30T19:40:27.275Z,20.7
2022-08-30T19:50:27.946Z,20.5
2022-08-30T20:00:30.729Z,20.3
2022-08-30T20:10:29.056Z,20.2
2022-08-30T20:20:29.498Z,20.1
2022-08-30T20:30:29.970Z,19.9
2022-08-30T20:40:30.308Z,19.8
2022-08-30T20:50:31.235Z,19.6
2022-08-30T21:00:31.757Z,19.5
2022-08-30T21:10:32.818Z,19.4
2022-08-30T21:30:33.830Z,19.2
2022-08-30T21:40:34.557Z,19.1
2022-08-30T21:50:35.368Z,18.9
2022-08-30T22:10:36.469Z,18.7
2022-08-30T22:20:37.220Z,18.6
2022-08-30T22:30:37.937Z,18.5
2022-08-30T22:40:38.873Z,18.4
2022-08-30T22:50:39.650Z,18.3
2022-08-30T23:00:40.413Z,18.2
2022-08-30T23:10:40.913Z,18.1
2022-08-30T23:20:41.786Z,18.1
2022-08-30T23:30:42.003Z,18
2022-08-30T23:40:42.268Z,17.9
